Time;durP1;ratioP1;P1;durP2;ratioP2;P2;SDS_P1;SDS_P2;PMS_P1;PMS_P2;Temp;Humidity;BMP_temperature;BMP_pressure;BME280_temperature;BME280_humidity;BME280_pressure;Samples;Min_cycle;Max_cycle;Signal;HPM_P1;HPM_P2
2021/04/24 00:14:28;;;;;;;;;;;;;;;;;;5087259;27;20411;-60
2021/04/24 00:16:54;;;;;;;;;;;;;;;;;;5064759;28;19913;-62
2021/04/24 00:19:20;;;;;;;;;;;;;;;;;;5057691;28;19940;-61
2021/04/24 00:21:46;;;;;;;;;;;;;;;;;;5057603;28;20374;-62
2021/04/24 00:24:12;;;;;;;;;;;;;;;;;;5057324;28;19948;-60
2021/04/24 00:26:38;;;;;;;;;;;;;;;;;;5054437;28;19912;-60
2021/04/24 00:29:04;;;;;;;;;;;;;;;;;;5052155;28;19952;-61
2021/04/24 00:31:30;;;;;;;;;;;;;;;;;;5057245;28;20382;-63
2021/04/24 00:33:56;;;;;;;;;;;;;;;;;;5056919;28;20000;-60
2021/04/24 00:36:22;;;;;;;;;;;;;;;;;;5057118;28;19970;-60
2021/04/24 00:38:48;;;;;;;0.10;0.10;;;;;;;;;;5055394;28;19959;-60
2021/04/24 00:41:14;;;;;;;0.10;0.10;;;;;;;;;;5052062;28;20068;-61
2021/04/24 00:43:40;;;;;;;0.10;0.10;;;;;;;;;;5054389;28;20033;-61
2021/04/24 00:46:14;;;;;;;0.13;0.13;;;;;;;;;;5056466;28;20025;-60
2021/04/24 00:48:40;;;;;;;0.10;0.10;;;;;;;;;;5056226;28;20037;-60
2021/04/24 00:51:07;;;;;;;0.10;0.10;;;;;;;;;;5056505;28;20067;-61
2021/04/24 00:53:34;;;;;;;0.20;0.20;;;;;;;;;;5052851;28;20457;-60
2021/04/24 00:56:00;;;;;;;0.10;0.10;;;;;;;;;;5051382;28;20021;-61
2021/04/24 00:58:26;;;;;;;0.10;0.10;;;;;;;;;;5056724;28;20098;-60
2021/04/24 01:00:52;;;;;;;0.10;0.10;;;;;;;;;;5056183;28;20022;-63
2021/04/24 01:03:19;;;;;;;0.20;0.20;;;;;;;;;;5055598;28;20132;-60
2021/04/24 01:05:45;;;;;;;0.15;0.15;;;;;;;;;;5054472;28;20382;-61
2021/04/24 01:08:11;;;;;;;0.20;0.20;;;;;;;;;;5051240;28;20033;-60
2021/04/24 01:10:38;;;;;;;0.20;0.20;;;;;;;;;;5054321;28;20079;-60
2021/04/24 01:13:05;;;;;;;0.10;0.10;;;;;;;;;;5064654;28;20139;-61
2021/04/24 01:15:32;;;;;;;0.10;0.10;;;;;;;;;;5053114;28;20029;-61
2021/04/24 01:17:58;;;;;;;0.10;0.10;;;;;;;;;;5053293;28;20041;-63
2021/04/24 01:20:24;;;;;;;0.22;0.22;;;;;;;;;;5052358;28;20018;-61
2021/04/24 01:22:50;;;;;;;0.13;0.13;;;;;;;;;;5054244;28;20091;-60
2021/04/24 01:25:21;;;;;;;0.10;0.10;;;;;;;;;;5050548;28;20035;-61
2021/04/24 01:27:48;;;;;;;0.10;0.10;;;;;;;;;;5052358;28;20115;-60
2021/04/24 01:30:14;;;;;;;0.13;0.13;;;;;;;;;;5052181;28;20083;-60
2021/04/24 01:32:40;;;;;;;0.20;0.20;;;;;;;;;;5051898;28;20525;-60
2021/04/24 01:35:08;;;;;;;0.20;0.20;;;;;;;;;;5053429;28;20017;-60
2021/04/24 01:37:35;;;;;;;0.30;0.30;;;;;;;;;;5053153;28;20052;-60
2021/04/24 01:40:01;;;;;;;0.20;0.20;;;;;;;;;;5052107;28;20059;-59
2021/04/24 01:42:27;;;;;;;0.10;0.10;;;;;;;;;;5052066;28;20044;-60
2021/04/24 01:44:53;;;;;;;0.10;0.10;;;;;;;;;;5051928;28;20120;-62
2021/04/24 01:47:19;;;;;;;0.10;0.10;;;;;;;;;;5051827;28;20037;-63
2021/04/24 01:49:45;;;;;;;0.10;0.10;;;;;;;;;;5053764;28;20074;-62
2021/04/24 01:52:11;;;;;;;0.10;0.10;;;;;;;;;;5051818;28;20124;-60
2021/04/24 01:54:37;;;;;;;0.20;0.20;;;;;;;;;;5050855;28;20436;-60
2021/04/24 01:57:04;;;;;;;0.13;0.13;;;;;;;;;;5051205;28;20031;-65
2021/04/24 01:59:35;;;;;;;0.17;0.17;;;;;;;;;;5051565;28;20025;-61
2021/04/24 02:02:01;;;;;;;0.20;0.20;;;;;;;;;;5052164;28;20071;-60
2021/04/24 02:04:27;;;;;;;0.15;0.15;;;;;;;;;;5052434;28;20037;-60
2021/04/24 02:06:54;;;;;;;0.20;0.20;;;;;;;;;;5050207;28;20111;-61
2021/04/24 02:09:21;;;;;;;0.10;0.10;;;;;;;;;;5049914;28;20025;-60
2021/04/24 02:11:59;;;;;;;0.15;0.15;;;;;;;;;;5050418;28;20025;-60
2021/04/24 02:14:25;;;;;;;0.20;0.20;;;;;;;;;;5050653;28;20052;-60
2021/04/24 02:16:51;;;;;;;0.10;0.10;;;;;;;;;;5053165;28;20039;-61
2021/04/24 02:19:17;;;;;;;0.20;0.20;;;;;;;;;;5051339;28;20033;-61
2021/04/24 02:21:44;;;;;;;0.20;0.20;;;;;;;;;;5051138;28;20013;-62
2021/04/24 02:24:10;;;;;;;0.10;0.10;;;;;;;;;;5050958;28;20033;-60
2021/04/24 02:26:36;;;;;;;0.10;0.10;;;;;;;;;;5050193;28;20025;-60
2021/04/24 02:29:02;;;;;;;8.77;1.42;;;;;;;;;;5052221;28;20135;-60
2021/04/24 02:31:29;;;;;;;0.47;0.47;;;;;;;;;;5051368;28;20021;-60
2021/04/24 02:33:55;;;;;;;0.20;0.20;;;;;;;;;;5050669;28;20111;-60
2021/04/24 02:36:21;;;;;;;2.20;1.45;;;;;;;;;;5050926;28;20462;-67
2021/04/24 02:38:51;;;;;;;0.10;0.10;;;;;;;;;;5051027;28;20032;-60
2021/04/24 02:41:18;;;;;;;0.20;0.20;;;;;;;;;;5051109;28;20025;-61
2021/04/24 02:43:44;;;;;;;0.10;0.10;;;;;;;;;;5050480;28;20052;-65
2021/04/24 02:46:10;;;;;;;0.30;0.20;;;;;;;;;;5050805;28;20083;-60
2021/04/24 02:48:36;;;;;;;0.80;0.55;;;;;;;;;;5048789;28;20045;-61
2021/04/24 02:51:02;;;;;;;0.25;0.25;;;;;;;;;;5050812;28;20032;-60
2021/04/24 02:53:28;;;;;;;0.20;0.20;;;;;;;;;;5050718;28;20029;-60
2021/04/24 02:55:54;;;;;;;0.82;0.82;;;;;;;;;;5052121;28;20036;-62
2021/04/24 02:58:20;;;;;;;2.55;2.17;;;;;;;;;;5050251;28;20036;-60
2021/04/24 03:00:47;;;;;;;0.10;0.10;;;;;;;;;;5050318;28;20021;-62
2021/04/24 03:03:15;;;;;;;0.10;0.10;;;;;;;;;;5050389;28;20079;-60
2021/04/24 03:05:42;;;;;;;0.10;0.10;;;;;;;;;;5050583;28;20559;-60
2021/04/24 03:08:08;;;;;;;0.10;0.10;;;;;;;;;;5050888;28;20041;-60
2021/04/24 03:10:36;;;;;;;0.50;0.50;;;;;;;;;;5051343;28;20119;-61
2021/04/24 03:13:03;;;;;;;0.20;0.20;;;;;;;;;;5049535;28;20056;-60
2021/04/24 03:15:29;;;;;;;1.23;1.15;;;;;;;;;;5050098;28;20063;-60
2021/04/24 03:17:55;;;;;;;0.10;0.10;;;;;;;;;;5050368;28;20071;-60
2021/04/24 03:20:22;;;;;;;0.20;0.20;;;;;;;;;;5050035;28;20045;-60
2021/04/24 03:22:48;;;;;;;0.10;0.10;;;;;;;;;;5049621;28;20037;-60
2021/04/24 03:25:15;;;;;;;0.10;0.10;;;;;;;;;;5049635;28;20048;-60
2021/04/24 03:27:41;;;;;;;1.95;0.57;;;;;;;;;;5048077;28;20032;-61
2021/04/24 03:30:08;;;;;;;0.17;0.17;;;;;;;;;;5049819;28;20040;-60
2021/04/24 03:32:34;;;;;;;0.55;0.55;;;;;;;;;;5049930;28;20375;-61
2021/04/24 03:35:01;;;;;;;0.20;0.20;;;;;;;;;;5051185;28;20032;-61
2021/04/24 03:37:27;;;;;;;1.20;1.20;;;;;;;;;;5050722;28;20518;-60
2021/04/24 03:39:53;;;;;;;0.73;0.73;;;;;;;;;;5049793;28;20119;-60
2021/04/24 03:42:19;;;;;;;0.30;0.30;;;;;;;;;;5049555;28;20108;-60
2021/04/24 03:44:45;;;;;;;0.10;0.10;;;;;;;;;;5049704;28;20032;-61
2021/04/24 03:47:11;;;;;;;0.10;0.10;;;;;;;;;;5050302;28;20094;-60
2021/04/24 03:49:38;;;;;;;0.32;0.32;;;;;;;;;;5051267;28;20029;-64
2021/04/24 03:52:04;;;;;;;0.20;0.20;;;;;;;;;;5049651;28;20033;-60
2021/04/24 03:54:31;;;;;;;0.30;0.30;;;;;;;;;;5048451;28;20032;-61
2021/04/24 03:56:57;;;;;;;0.28;0.28;;;;;;;;;;5049519;28;20029;-60
2021/04/24 03:59:24;;;;;;;1.15;1.05;;;;;;;;;;5049041;28;20033;-60
2021/04/24 04:01:50;;;;;;;0.10;0.10;;;;;;;;;;5050108;28;20029;-61
2021/04/24 04:04:17;;;;;;;0.20;0.20;;;;;;;;;;5049702;28;20037;-61
2021/04/24 04:06:43;;;;;;;0.20;0.20;;;;;;;;;;5047920;28;20017;-60
2021/04/24 04:09:09;;;;;;;0.15;0.15;;;;;;;;;;5048978;28;20029;-61
2021/04/24 04:11:35;;;;;;;0.32;0.32;;;;;;;;;;5048911;28;20121;-60
2021/04/24 04:14:01;;;;;;;0.60;0.60;;;;;;;;;;5050816;28;20053;-60
2021/04/24 04:16:27;;;;;;;0.82;0.82;;;;;;;;;;5049945;28;20064;-61
2021/04/24 04:18:53;;;;;;;0.10;0.10;;;;;;;;;;5049225;28;20021;-60
2021/04/24 04:21:20;;;;;;;0.20;0.20;;;;;;;;;;5048280;28;20040;-60
2021/04/24 04:23:47;;;;;;;0.30;0.30;;;;;;;;;;5048279;28;20140;-60
2021/04/24 04:26:13;;;;;;;0.10;0.10;;;;;;;;;;5049391;28;20029;-60
2021/04/24 04:28:39;;;;;;;0.10;0.10;;;;;;;;;;5048899;28;20037;-61
2021/04/24 04:31:05;;;;;;;0.15;0.15;;;;;;;;;;5049337;28;20439;-60
2021/04/24 04:33:31;;;;;;;0.10;0.10;;;;;;;;;;5049179;28;20091;-60
2021/04/24 04:36:03;;;;;;;0.10;0.10;;;;;;;;;;5049321;28;20040;-60
2021/04/24 04:38:30;;;;;;;0.10;0.10;;;;;;;;;;5032305;28;20025;-60
2021/04/24 04:40:56;;;;;;;0.20;0.20;;;;;;;;;;5046589;28;20108;-61
2021/04/24 04:43:22;;;;;;;0.10;0.10;;;;;;;;;;5049222;28;20576;-60
2021/04/24 04:45:48;;;;;;;0.10;0.10;;;;;;;;;;5047733;28;20017;-66
2021/04/24 04:48:15;;;;;;;0.10;0.10;;;;;;;;;;5049124;28;20494;-60
2021/04/24 04:50:41;;;;;;;0.13;0.13;;;;;;;;;;5052559;28;20021;-61
2021/04/24 04:53:08;;;;;;;9.35;5.80;;;;;;;;;;5053948;28;20041;-60
2021/04/24 04:55:34;;;;;;;0.10;0.10;;;;;;;;;;5053452;28;20021;-63
2021/04/24 04:58:00;;;;;;;0.20;0.20;;;;;;;;;;5052652;28;20043;-60
2021/04/24 05:00:28;;;;;;;0.10;0.10;;;;;;;;;;5052763;28;20021;-65
2021/04/24 05:02:54;;;;;;;0.10;0.10;;;;;;;;;;5052021;28;20049;-68
2021/04/24 05:05:21;;;;;;;0.10;0.10;;;;;;;;;;5053737;28;20028;-60
2021/04/24 05:07:49;;;;;;;0.10;0.10;;;;;;;;;;5052956;28;20082;-60
2021/04/24 05:10:16;;;;;;;0.10;0.10;;;;;;;;;;5053165;28;20021;-61
2021/04/24 05:12:42;;;;;;;0.10;0.10;;;;;;;;;;5053326;28;20510;-60
2021/04/24 05:15:09;;;;;;;0.10;0.10;;;;;;;;;;5052931;28;20086;-60
2021/04/24 05:17:35;;;;;;;0.10;0.10;;;;;;;;;;5053195;28;20040;-60
2021/04/24 05:20:01;;;;;;;0.20;0.20;;;;;;;;;;5053490;28;20024;-60
2021/04/24 05:22:27;;;;;;;0.10;0.10;;;;;;;;;;5053205;28;20763;-60
2021/04/24 05:24:53;;;;;;;0.10;0.10;;;;;;;;;;5052598;28;20057;-59
2021/04/24 05:27:19;;;;;;;0.20;0.20;;;;;;;;;;5053286;28;20056;-60
2021/04/24 05:29:45;;;;;;;0.10;0.10;;;;;;;;;;5053089;28;20024;-61
2021/04/24 05:32:12;;;;;;;0.10;0.10;;;;;;;;;;5052079;28;20372;-60
2021/04/24 05:34:38;;;;;;;0.15;0.15;;;;;;;;;;5053565;28;20056;-60
2021/04/24 05:37:04;;;;;;;0.10;0.10;;;;;;;;;;5053194;28;20036;-61
2021/04/24 05:39:30;;;;;;;0.17;0.17;;;;;;;;;;5048782;28;20052;-60
2021/04/24 05:41:56;;;;;;;0.10;0.10;;;;;;;;;;5040768;28;20029;-60
2021/04/24 05:44:23;;;;;;;0.20;0.20;;;;;;;;;;5053164;28;20052;-60
2021/04/24 05:46:49;;;;;;;0.10;0.10;;;;;;;;;;5053393;28;20040;-60
2021/04/24 05:49:15;;;;;;;2.17;1.80;;;;;;;;;;5052163;28;20029;-59
2021/04/24 05:51:41;;;;;;;0.10;0.10;;;;;;;;;;5052736;28;20043;-60
2021/04/24 05:54:07;;;;;;;0.20;0.20;;;;;;;;;;5048363;28;20025;-60
2021/04/24 05:56:33;;;;;;;1.65;1.42;;;;;;;;;;5052545;28;20047;-60
2021/04/24 05:58:59;;;;;;;0.85;0.85;;;;;;;;;;5053206;28;20024;-62
2021/04/24 06:01:25;;;;;;;1.08;0.98;;;;;;;;;;5052611;28;20372;-60
2021/04/24 06:03:53;;;;;;;0.20;0.20;;;;;;;;;;5052245;28;20050;-63
2021/04/24 06:06:20;;;;;;;1.33;1.23;;;;;;;;;;5052225;28;20402;-59
2021/04/24 06:08:46;;;;;;;0.43;0.43;;;;;;;;;;5052219;28;20025;-63
2021/04/24 06:11:12;;;;;;;0.10;0.10;;;;;;;;;;5052491;28;20054;-59
2021/04/24 06:13:38;;;;;;;0.20;0.20;;;;;;;;;;5052383;28;20416;-60
2021/04/24 06:16:04;;;;;;;0.10;0.10;;;;;;;;;;5052032;28;20028;-64
2021/04/24 06:18:30;;;;;;;0.30;0.30;;;;;;;;;;5052369;28;20111;-59
2021/04/24 06:20:57;;;;;;;0.22;0.22;;;;;;;;;;5052430;28;20024;-61
2021/04/24 06:23:23;;;;;;;1.80;1.65;;;;;;;;;;5052111;28;20463;-60
2021/04/24 06:25:49;;;;;;;0.95;0.95;;;;;;;;;;5052799;28;20478;-60
2021/04/24 06:28:15;;;;;;;0.45;0.45;;;;;;;;;;5051145;28;20025;-61
2021/04/24 06:30:41;;;;;;;0.90;0.90;;;;;;;;;;5052135;28;20025;-60
2021/04/24 06:33:07;;;;;;;0.15;0.15;;;;;;;;;;5051830;28;20120;-60
2021/04/24 06:35:33;;;;;;;0.40;0.40;;;;;;;;;;5051994;28;20032;-60
2021/04/24 06:37:59;;;;;;;1.33;1.23;;;;;;;;;;5052549;28;20036;-64
2021/04/24 06:40:27;;;;;;;1.23;1.15;;;;;;;;;;5051476;28;20032;-59
2021/04/24 06:42:53;;;;;;;1.05;0.57;;;;;;;;;;5051269;28;20041;-59
2021/04/24 06:45:20;;;;;;;7.53;1.85;;;;;;;;;;5051689;28;20029;-67
2021/04/24 06:47:47;;;;;;;0.52;0.43;;;;;;;;;;5050353;28;20028;-59
2021/04/24 06:50:14;;;;;;;0.15;0.13;;;;;;;;;;5051504;28;20376;-59
2021/04/24 06:52:40;;;;;;;0.10;0.10;;;;;;;;;;5050145;28;20127;-59
2021/04/24 06:55:07;;;;;;;0.47;0.47;;;;;;;;;;5051124;28;20025;-60
2021/04/24 06:57:33;;;;;;;0.10;0.10;;;;;;;;;;5051287;28;20163;-62
2021/04/24 06:59:59;;;;;;;0.10;0.10;;;;;;;;;;5051001;28;20025;-60
2021/04/24 07:02:25;;;;;;;0.90;0.90;;;;;;;;;;5048987;28;20041;-66
2021/04/24 07:04:51;;;;;;;0.13;0.13;;;;;;;;;;5051128;28;20027;-59
2021/04/24 07:07:17;;;;;;;2.33;1.38;;;;;;;;;;5050272;28;20474;-60
2021/04/24 07:09:43;;;;;;;1.20;1.10;;;;;;;;;;5048554;28;20060;-58
2021/04/24 07:12:10;;;;;;;0.50;0.50;;;;;;;;;;5048427;28;20032;-57
2021/04/24 07:14:36;;;;;;;0.68;0.68;;;;;;;;;;5050380;28;20108;-61
2021/04/24 07:17:02;;;;;;;0.75;0.75;;;;;;;;;;5050420;28;20029;-58
2021/04/24 07:19:28;;;;;;;1.13;1.02;;;;;;;;;;5047251;28;20491;-60
2021/04/24 07:21:54;;;;;;;0.10;0.10;;;;;;;;;;5049774;28;20023;-61
2021/04/24 07:24:20;;;;;;;0.10;0.10;;;;;;;;;;5050029;28;20090;-60
2021/04/24 07:26:47;;;;;;;0.80;0.73;;;;;;;;;;5050150;28;20445;-61
2021/04/24 07:29:13;;;;;;;0.70;0.70;;;;;;;;;;5050392;28;20083;-60
2021/04/24 07:31:39;;;;;;;2.72;1.45;;;;;;;;;;5050323;28;20494;-60
2021/04/24 07:34:07;;;;;;;11.57;1.27;;;;;;;;;;5049407;28;20112;-60
2021/04/24 07:36:33;;;;;;;0.10;0.10;;;;;;;;;;5046871;28;20039;-60
2021/04/24 07:39:00;;;;;;;0.25;0.20;;;;;;;;;;5049646;28;20029;-60
2021/04/24 07:41:26;;;;;;;2.78;2.67;;;;;;;;;;5050698;28;20053;-60
2021/04/24 07:43:52;;;;;;;0.10;0.10;;;;;;;;;;5050743;28;20503;-60
2021/04/24 07:46:19;;;;;;;0.10;0.10;;;;;;;;;;5049939;28;20037;-61
2021/04/24 07:48:45;;;;;;;0.13;0.13;;;;;;;;;;5047303;28;20071;-60
2021/04/24 07:51:11;;;;;;;4.78;1.33;;;;;;;;;;5050108;28;20023;-60
2021/04/24 07:53:37;;;;;;;0.20;0.20;;;;;;;;;;5049376;28;20025;-60
2021/04/24 07:56:04;;;;;;;1.77;1.63;;;;;;;;;;5050537;28;20025;-60
2021/04/24 07:58:30;;;;;;;0.00;0.00;;;;;;;;;;5050339;28;20457;-62
2021/04/24 08:00:56;;;;;;;0.10;0.10;;;;;;;;;;5047256;28;20028;-61
2021/04/24 08:03:22;;;;;;;0.30;0.30;;;;;;;;;;5048266;28;20056;-60
2021/04/24 08:05:48;;;;;;;1.50;0.40;;;;;;;;;;5049335;28;20048;-60
2021/04/24 08:08:15;;;;;;;0.65;0.65;;;;;;;;;;5049342;28;20106;-60
2021/04/24 08:10:41;;;;;;;4.85;2.03;;;;;;;;;;5050574;28;20037;-60
2021/04/24 08:13:07;;;;;;;1.02;0.98;;;;;;;;;;5049404;28;20053;-60
2021/04/24 08:15:33;;;;;;;0.30;0.30;;;;;;;;;;5049362;28;20029;-60
2021/04/24 08:18:00;;;;;;;2.08;1.10;;;;;;;;;;5049313;28;20035;-60
2021/04/24 08:20:26;;;;;;;1.02;0.30;;;;;;;;;;5049743;28;20024;-60
2021/04/24 08:22:53;;;;;;;0.00;0.00;;;;;;;;;;5049850;28;20127;-60
2021/04/24 08:25:19;;;;;;;0.10;0.10;;;;;;;;;;5050635;28;20104;-60
2021/04/24 08:27:45;;;;;;;0.10;0.10;;;;;;;;;;5053447;28;20117;-60
2021/04/24 08:30:13;;;;;;;1.73;0.98;;;;;;;;;;5053587;28;20072;-60
2021/04/24 08:32:40;;;;;;;0.20;0.20;;;;;;;;;;5053333;28;20025;-60
2021/04/24 08:35:07;;;;;;;0.22;0.22;;;;;;;;;;5053621;28;20402;-60
2021/04/24 08:37:33;;;;;;;0.13;0.13;;;;;;;;;;5054246;28;20120;-60
2021/04/24 08:40:00;;;;;;;0.10;0.10;;;;;;;;;;5053572;28;20350;-60
2021/04/24 08:42:27;;;;;;;0.10;0.10;;;;;;;;;;5051596;28;20048;-61
2021/04/24 08:44:54;;;;;;;0.00;0.00;;;;;;;;;;5052619;28;20037;-61
2021/04/24 08:47:21;;;;;;;0.75;0.75;;;;;;;;;;5052648;28;20060;-60
2021/04/24 08:49:47;;;;;;;0.10;0.10;;;;;;;;;;5053795;28;20059;-61
2021/04/24 08:52:13;;;;;;;0.55;0.45;;;;;;;;;;5053358;28;20090;-60
2021/04/24 08:54:39;;;;;;;0.10;0.10;;;;;;;;;;5053530;28;20029;-63
2021/04/24 08:57:06;;;;;;;0.43;0.38;;;;;;;;;;5052667;28;20075;-63
2021/04/24 08:59:32;;;;;;;4.05;1.45;;;;;;;;;;5052486;28;20044;-60
2021/04/24 09:01:58;;;;;;;0.40;0.40;;;;;;;;;;5050321;28;20029;-65
2021/04/24 09:04:24;;;;;;;0.00;0.00;;;;;;;;;;5049239;28;20025;-61
2021/04/24 09:06:50;;;;;;;0.10;0.10;;;;;;;;;;5051914;28;20548;-62
2021/04/24 09:09:17;;;;;;;1.75;0.35;;;;;;;;;;5051974;28;20064;-64
2021/04/24 09:11:47;;;;;;;0.10;0.10;;;;;;;;;;5052300;28;20501;-60
2021/04/24 09:14:14;;;;;;;0.10;0.10;;;;;;;;;;5051903;28;20044;-61
2021/04/24 09:16:41;;;;;;;4.25;0.40;;;;;;;;;;5050191;28;20214;-61
2021/04/24 09:19:26;;;;;;;1.63;1.52;;;;;;;;;;5050047;28;20029;-61
2021/04/24 09:22:12;;;;;;;3.13;1.80;;;;;;;;;;5051005;28;20085;-61
2021/04/24 09:24:39;;;;;;;0.20;0.20;;;;;;;;;;5043735;28;20045;-61
2021/04/24 09:27:06;;;;;;;0.10;0.10;;;;;;;;;;5052269;28;20031;-66
2021/04/24 09:29:32;;;;;;;0.98;0.95;;;;;;;;;;5051331;28;20020;-61
2021/04/24 09:32:14;;;;;;;0.00;0.00;;;;;;;;;;5050830;28;20040;-63
2021/04/24 09:34:41;;;;;;;0.10;0.10;;;;;;;;;;5053673;28;20036;-61
2021/04/24 09:37:14;;;;;;;0.00;0.00;;;;;;;;;;5049993;28;20017;-61
2021/04/24 09:39:51;;;;;;;0.10;0.10;;;;;;;;;;5052538;28;20029;-60
2021/04/24 09:42:33;;;;;;;1.27;0.63;;;;;;;;;;5052828;28;20040;-61
2021/04/24 09:44:59;;;;;;;0.10;0.10;;;;;;;;;;5028804;28;20043;-61
2021/04/24 09:47:44;;;;;;;0.10;0.10;;;;;;;;;;5047818;28;20059;-61
2021/04/24 09:50:12;;;;;;;1.88;0.75;;;;;;;;;;5043754;28;20502;-61
2021/04/24 09:52:38;;;;;;;0.00;0.00;;;;;;;;;;5046625;28;20021;-61
2021/04/24 09:55:05;;;;;;;0.43;0.43;;;;;;;;;;5047762;28;20025;-61
2021/04/24 09:57:34;;;;;;;0.57;0.57;;;;;;;;;;5049743;28;20064;-61
2021/04/24 10:00:02;;;;;;;0.43;0.35;;;;;;;;;;5050011;28;20064;-60
2021/04/24 10:02:35;;;;;;;0.00;0.00;;;;;;;;;;5047786;28;20044;-61
2021/04/24 10:05:08;;;;;;;0.57;0.57;;;;;;;;;;5046908;28;20036;-61
2021/04/24 10:07:38;;;;;;;0.65;0.47;;;;;;;;;;5066435;28;20033;-61
2021/04/24 10:10:06;;;;;;;1.00;0.43;;;;;;;;;;5049649;28;20144;-61
2021/04/24 10:12:32;;;;;;;2.92;2.05;;;;;;;;;;5049201;28;20481;-61
2021/04/24 10:14:58;;;;;;;0.20;0.20;;;;;;;;;;5050004;28;20402;-61
2021/04/24 10:17:26;;;;;;;1.55;1.45;;;;;;;;;;5049459;28;20109;-61
2021/04/24 10:19:52;;;;;;;0.10;0.10;;;;;;;;;;5050354;28;20065;-60
2021/04/24 10:22:20;;;;;;;0.10;0.10;;;;;;;;;;5048630;28;20411;-61
2021/04/24 10:24:46;;;;;;;0.20;0.20;;;;;;;;;;5047874;28;20040;-61
2021/04/24 10:27:14;;;;;;;0.32;0.32;;;;;;;;;;5049278;28;20103;-61
2021/04/24 10:29:41;;;;;;;0.00;0.00;;;;;;;;;;5048405;28;20029;-61
2021/04/24 10:32:08;;;;;;;0.17;0.17;;;;;;;;;;5050100;28;20029;-61
2021/04/24 10:34:34;;;;;;;0.10;0.10;;;;;;;;;;5050416;28;20029;-61
2021/04/24 10:37:00;;;;;;;1.65;0.90;;;;;;;;;;5049462;28;20082;-61
2021/04/24 10:39:33;;;;;;;0.15;0.15;;;;;;;;;;5051217;28;20109;-63
2021/04/24 10:41:59;;;;;;;0.10;0.10;;;;;;;;;;5051473;28;20118;-61
2021/04/24 10:44:42;;;;;;;9.43;2.25;;;;;;;;;;5051630;28;20025;-61
2021/04/24 10:47:09;;;;;;;1.00;1.00;;;;;;;;;;5048248;28;20036;-61
2021/04/24 10:49:35;;;;;;;1.70;1.15;;;;;;;;;;5050626;28;20061;-61
2021/04/24 10:52:01;;;;;;;1.42;1.33;;;;;;;;;;5051266;28;20060;-61
2021/04/24 10:54:31;;;;;;;0.47;0.45;;;;;;;;;;5051252;28;20475;-61
2021/04/24 10:56:58;;;;;;;6.78;1.23;;;;;;;;;;5039381;28;20032;-61
2021/04/24 10:59:26;;;;;;;0.10;0.10;;;;;;;;;;5051256;28;20017;-61
2021/04/24 11:02:07;;;;;;;1.10;1.10;;;;;;;;;;5051450;28;20029;-63
2021/04/24 11:04:44;;;;;;;0.30;0.30;;;;;;;;;;5049592;28;20041;-62
2021/04/24 11:07:27;;;;;;;0.00;0.00;;;;;;;;;;5050924;28;20033;-61
2021/04/24 11:10:12;;;;;;;2.05;0.90;;;;;;;;;;5051373;28;20071;-61
2021/04/24 11:12:40;;;;;;;1.13;1.00;;;;;;;;;;5049235;28;20049;-61
2021/04/24 11:15:07;;;;;;;5.82;2.40;;;;;;;;;;5046342;28;20082;-64
2021/04/24 11:17:33;;;;;;;0.10;0.10;;;;;;;;;;5048466;28;20017;-61
2021/04/24 11:19:59;;;;;;;3.35;2.35;;;;;;;;;;5050529;28;20522;-61
2021/04/24 11:22:32;;;;;;;0.45;0.20;;;;;;;;;;5050266;28;20041;-61
2021/04/24 11:25:16;;;;;;;6.70;2.15;;;;;;;;;;5045827;28;20033;-61
2021/04/24 11:28:02;;;;;;;1.05;0.80;;;;;;;;;;5049739;28;20490;-61
2021/04/24 11:30:46;;;;;;;3.13;2.95;;;;;;;;;;5049023;28;20479;-61
2021/04/24 11:33:31;;;;;;;0.03;0.03;;;;;;;;;;5049244;28;20033;-62
2021/04/24 11:36:16;;;;;;;1.20;0.82;;;;;;;;;;5049912;28;20057;-62
2021/04/24 11:39:00;;;;;;;0.33;0.33;;;;;;;;;;5049462;28;20037;-62
2021/04/24 11:41:29;;;;;;;1.48;0.88;;;;;;;;;;5049549;28;20426;-61
2021/04/24 11:43:56;;;;;;;0.20;0.20;;;;;;;;;;5049988;28;20029;-61
2021/04/24 11:46:37;;;;;;;3.90;1.65;;;;;;;;;;5049730;28;20033;-61
2021/04/24 11:49:04;;;;;;;17.33;2.55;;;;;;;;;;5047287;28;20119;-61
2021/04/24 11:51:38;;;;;;;0.82;0.82;;;;;;;;;;5046843;28;20036;-61
2021/04/24 11:54:08;;;;;;;2.63;1.23;;;;;;;;;;5046413;28;20514;-61
2021/04/24 11:56:35;;;;;;;0.90;0.88;;;;;;;;;;5044791;28;20390;-62
2021/04/24 11:59:02;;;;;;;2.78;1.98;;;;;;;;;;5045094;28;20108;-61
2021/04/24 12:01:28;;;;;;;0.60;0.43;;;;;;;;;;5047699;28;20028;-61
2021/04/24 12:03:55;;;;;;;4.68;2.72;;;;;;;;;;5048529;28;20033;-62
2021/04/24 12:06:34;;;;;;;0.00;0.00;;;;;;;;;;5049185;28;20550;-61
2021/04/24 12:09:01;;;;;;;3.83;2.08;;;;;;;;;;5048816;28;20143;-61
2021/04/24 12:11:27;;;;;;;0.57;0.57;;;;;;;;;;5049058;28;20110;-61
2021/04/24 12:13:53;;;;;;;3.17;1.17;;;;;;;;;;5049203;28;20065;-61
2021/04/24 12:16:19;;;;;;;5.20;3.13;;;;;;;;;;5049230;28;20578;-61
2021/04/24 12:18:46;;;;;;;4.25;2.90;;;;;;;;;;5049453;28;20025;-61
2021/04/24 12:21:12;;;;;;;4.38;1.58;;;;;;;;;;5049434;28;20126;-61
2021/04/24 12:23:38;;;;;;;5.35;1.95;;;;;;;;;;5044034;28;20036;-61
2021/04/24 12:26:04;;;;;;;0.40;0.30;;;;;;;;;;5046426;28;20027;-61
2021/04/24 12:28:30;;;;;;;2.88;1.65;;;;;;;;;;5048845;28;20558;-62
2021/04/24 12:30:57;;;;;;;3.53;2.20;;;;;;;;;;5047471;28;20039;-61
2021/04/24 12:33:23;;;;;;;3.75;1.48;;;;;;;;;;5048661;28;20387;-62
2021/04/24 12:35:54;;;;;;;0.10;0.10;;;;;;;;;;5046715;28;20082;-62
2021/04/24 12:38:22;;;;;;;0.20;0.20;;;;;;;;;;5047391;28;20441;-62
2021/04/24 12:41:01;;;;;;;5.15;1.65;;;;;;;;;;5049001;28;20014;-63
2021/04/24 12:43:31;;;;;;;1.30;1.20;;;;;;;;;;5047802;28;20461;-61
2021/04/24 12:45:59;;;;;;;4.03;1.40;;;;;;;;;;5049265;28;20059;-61
2021/04/24 12:48:43;;;;;;;4.95;2.03;;;;;;;;;;5047178;28;20424;-61
2021/04/24 12:51:19;;;;;;;2.67;1.38;;;;;;;;;;5048532;28;20509;-61
2021/04/24 12:53:47;;;;;;;0.00;0.00;;;;;;;;;;5048368;28;20021;-61
2021/04/24 12:56:21;;;;;;;2.15;1.17;;;;;;;;;;5046568;28;20376;-61
2021/04/24 12:58:49;;;;;;;6.30;1.65;;;;;;;;;;5046664;28;20043;-62
2021/04/24 13:01:15;;;;;;;14.00;1.85;;;;;;;;;;5047798;28;20021;-61
2021/04/24 13:03:42;;;;;;;8.52;5.07;;;;;;;;;;5048272;28;20599;-61
2021/04/24 13:06:12;;;;;;;1.83;1.70;;;;;;;;;;5044945;28;20025;-61
2021/04/24 13:08:38;;;;;;;1.90;1.00;;;;;;;;;;5047640;28;20040;-61
2021/04/24 13:11:15;;;;;;;4.30;1.65;;;;;;;;;;5050653;28;20021;-61
2021/04/24 13:13:43;;;;;;;15.05;2.13;;;;;;;;;;5050623;28;20049;-61
2021/04/24 13:16:09;;;;;;;2.72;1.85;;;;;;;;;;5049370;28;20029;-61
2021/04/24 13:18:46;;;;;;;4.82;1.58;;;;;;;;;;5051171;28;20075;-61
2021/04/24 13:21:23;;;;;;;1.25;0.47;;;;;;;;;;5051653;28;20067;-71
2021/04/24 13:27:26;;;;;;;;;;;19.70;99.90;;;;;;5103771;27;20988;-58
2021/04/24 13:29:53;;;;;;;2.85;1.55;;;19.30;99.90;;;;;;5102552;28;19937;-58
2021/04/24 13:40:24;;;;;;;;;;;22.90;99.90;;;;;;5111200;27;20437;-60
2021/04/24 13:42:51;;;;;;;0.00;0.00;;;22.50;99.90;;;;;;5110018;28;19994;-55
